sensor_id;sensor_type;location;lat;lon;timestamp;P1;durP1;ratioP1;P2;durP2;ratioP2
11887;SDS011;6003;42.756;23.130;2022-08-04T00:01:05;4.13;;;3.83;;
11887;SDS011;6003;42.756;23.130;2022-08-04T00:03:37;4.73;;;4.33;;
11887;SDS011;6003;42.756;23.130;2022-08-04T00:06:11;4.10;;;3.80;;
11887;SDS011;6003;42.756;23.130;2022-08-04T00:08:45;4.73;;;3.97;;
11887;SDS011;6003;42.756;23.130;2022-08-04T00:11:18;4.90;;;4.60;;
11887;SDS011;6003;42.756;23.130;2022-08-04T00:13:49;4.20;;;4.00;;
11887;SDS011;6003;42.756;23.130;2022-08-04T00:16:20;4.27;;;3.97;;
11887;SDS011;6003;42.756;23.130;2022-08-04T00:18:49;3.53;;;3.33;;
11887;SDS011;6003;42.756;23.130;2022-08-04T00:21:21;4.83;;;4.20;;
11887;SDS011;6003;42.756;23.130;2022-08-04T00:23:51;4.37;;;3.97;;
11887;SDS011;6003;42.756;23.130;2022-08-04T00:26:21;4.07;;;3.80;;
11887;SDS011;6003;42.756;23.130;2022-08-04T00:28:49;4.20;;;3.80;;
11887;SDS011;6003;42.756;23.130;2022-08-04T00:31:16;3.67;;;3.33;;
11887;SDS011;6003;42.756;23.130;2022-08-04T00:33:44;4.97;;;4.57;;
11887;SDS011;6003;42.756;23.130;2022-08-04T00:36:12;4.77;;;4.40;;
11887;SDS011;6003;42.756;23.130;2022-08-04T00:38:40;4.00;;;3.70;;
11887;SDS011;6003;42.756;23.130;2022-08-04T00:41:11;4.37;;;4.07;;
11887;SDS011;6003;42.756;23.130;2022-08-04T00:43:51;4.60;;;4.20;;
11887;SDS011;6003;42.756;23.130;2022-08-04T00:46:41;4.37;;;4.10;;
11887;SDS011;6003;42.756;23.130;2022-08-04T00:49:27;4.87;;;4.47;;
11887;SDS011;6003;42.756;23.130;2022-08-04T00:52:15;5.53;;;5.10;;
11887;SDS011;6003;42.756;23.130;2022-08-04T00:54:56;5.77;;;5.07;;
11887;SDS011;6003;42.756;23.130;2022-08-04T00:57:49;5.50;;;5.10;;
11887;SDS011;6003;42.756;23.130;2022-08-04T01:00:31;5.63;;;5.13;;
11887;SDS011;6003;42.756;23.130;2022-08-04T01:03:12;5.43;;;4.77;;
11887;SDS011;6003;42.756;23.130;2022-08-04T01:05:51;5.27;;;4.77;;
11887;SDS011;6003;42.756;23.130;2022-08-04T01:08:34;5.07;;;4.67;;
11887;SDS011;6003;42.756;23.130;2022-08-04T01:11:13;5.00;;;4.70;;
11887;SDS011;6003;42.756;23.130;2022-08-04T01:13:53;4.80;;;4.50;;
11887;SDS011;6003;42.756;23.130;2022-08-04T01:16:27;5.43;;;5.03;;
11887;SDS011;6003;42.756;23.130;2022-08-04T01:18:58;4.83;;;4.50;;
11887;SDS011;6003;42.756;23.130;2022-08-04T01:24:47;5.10;;;4.70;;
11887;SDS011;6003;42.756;23.130;2022-08-04T01:27:33;5.10;;;4.70;;
11887;SDS011;6003;42.756;23.130;2022-08-04T01:30:22;4.80;;;4.40;;
11887;SDS011;6003;42.756;23.130;2022-08-04T01:32:52;5.17;;;4.67;;
11887;SDS011;6003;42.756;23.130;2022-08-04T01:35:28;7.23;;;5.43;;
11887;SDS011;6003;42.756;23.130;2022-08-04T01:38:01;6.80;;;5.13;;
11887;SDS011;6003;42.756;23.130;2022-08-04T01:40:35;7.53;;;5.70;;
11887;SDS011;6003;42.756;23.130;2022-08-04T01:43:03;8.60;;;6.30;;
11887;SDS011;6003;42.756;23.130;2022-08-04T01:45:32;6.40;;;5.80;;
11887;SDS011;6003;42.756;23.130;2022-08-04T01:48:02;7.23;;;6.50;;
11887;SDS011;6003;42.756;23.130;2022-08-04T01:50:34;7.00;;;6.20;;
11887;SDS011;6003;42.756;23.130;2022-08-04T01:53:02;6.43;;;5.83;;
11887;SDS011;6003;42.756;23.130;2022-08-04T01:55:29;7.13;;;6.53;;
11887;SDS011;6003;42.756;23.130;2022-08-04T01:57:57;7.00;;;6.40;;
11887;SDS011;6003;42.756;23.130;2022-08-04T02:00:26;7.30;;;6.60;;
11887;SDS011;6003;42.756;23.130;2022-08-04T02:02:56;7.10;;;6.50;;
11887;SDS011;6003;42.756;23.130;2022-08-04T02:05:24;7.17;;;6.47;;
11887;SDS011;6003;42.756;23.130;2022-08-04T02:08:01;6.60;;;6.10;;
11887;SDS011;6003;42.756;23.130;2022-08-04T02:10:53;6.97;;;6.30;;
11887;SDS011;6003;42.756;23.130;2022-08-04T02:13:32;7.20;;;6.60;;
11887;SDS011;6003;42.756;23.130;2022-08-04T02:16:10;7.67;;;7.03;;
11887;SDS011;6003;42.756;23.130;2022-08-04T02:18:48;7.10;;;6.50;;
11887;SDS011;6003;42.756;23.130;2022-08-04T02:21:25;7.63;;;6.93;;
11887;SDS011;6003;42.756;23.130;2022-08-04T02:23:56;7.70;;;7.00;;
11887;SDS011;6003;42.756;23.130;2022-08-04T02:26:27;8.10;;;7.40;;
11887;SDS011;6003;42.756;23.130;2022-08-04T02:28:57;7.23;;;6.27;;
11887;SDS011;6003;42.756;23.130;2022-08-04T02:31:31;7.83;;;7.13;;
11887;SDS011;6003;42.756;23.130;2022-08-04T02:34:05;9.17;;;7.70;;
11887;SDS011;6003;42.756;23.130;2022-08-04T02:36:35;8.87;;;8.07;;
11887;SDS011;6003;42.756;23.130;2022-08-04T02:39:04;8.60;;;7.37;;
11887;SDS011;6003;42.756;23.130;2022-08-04T02:41:32;8.83;;;7.93;;
11887;SDS011;6003;42.756;23.130;2022-08-04T02:44:01;8.23;;;7.53;;
11887;SDS011;6003;42.756;23.130;2022-08-04T02:46:30;8.43;;;7.63;;
11887;SDS011;6003;42.756;23.130;2022-08-04T02:48:58;8.67;;;7.97;;
11887;SDS011;6003;42.756;23.130;2022-08-04T02:51:32;8.60;;;7.80;;
11887;SDS011;6003;42.756;23.130;2022-08-04T02:54:01;7.30;;;6.70;;
11887;SDS011;6003;42.756;23.130;2022-08-04T02:56:30;8.97;;;8.03;;
11887;SDS011;6003;42.756;23.130;2022-08-04T02:58:58;8.90;;;8.00;;
11887;SDS011;6003;42.756;23.130;2022-08-04T03:01:27;9.63;;;8.07;;
11887;SDS011;6003;42.756;23.130;2022-08-04T03:04:05;8.37;;;7.57;;
11887;SDS011;6003;42.756;23.130;2022-08-04T03:16:02;6.63;;;5.97;;
11887;SDS011;6003;42.756;23.130;2022-08-04T03:22:10;6.77;;;6.17;;
11887;SDS011;6003;42.756;23.130;2022-08-04T03:28:20;6.90;;;6.00;;
11887;SDS011;6003;42.756;23.130;2022-08-04T03:31:17;7.63;;;6.80;;
11887;SDS011;6003;42.756;23.130;2022-08-04T03:34:12;7.60;;;6.90;;
11887;SDS011;6003;42.756;23.130;2022-08-04T03:37:02;8.47;;;7.67;;
11887;SDS011;6003;42.756;23.130;2022-08-04T03:42:55;8.50;;;7.80;;
11887;SDS011;6003;42.756;23.130;2022-08-04T03:46:15;9.53;;;8.57;;
11887;SDS011;6003;42.756;23.130;2022-08-04T03:52:31;9.23;;;8.40;;
11887;SDS011;6003;42.756;23.130;2022-08-04T03:55:34;9.30;;;8.47;;
11887;SDS011;6003;42.756;23.130;2022-08-04T03:58:20;8.60;;;7.90;;
11887;SDS011;6003;42.756;23.130;2022-08-04T04:01:07;12.03;;;8.50;;
11887;SDS011;6003;42.756;23.130;2022-08-04T04:03:51;10.13;;;7.90;;
11887;SDS011;6003;42.756;23.130;2022-08-04T04:06:40;8.47;;;7.60;;
11887;SDS011;6003;42.756;23.130;2022-08-04T04:12:29;9.00;;;7.83;;
11887;SDS011;6003;42.756;23.130;2022-08-04T04:15:17;8.43;;;7.73;;
11887;SDS011;6003;42.756;23.130;2022-08-04T04:18:05;8.60;;;7.80;;
11887;SDS011;6003;42.756;23.130;2022-08-04T04:20:52;7.07;;;6.47;;
11887;SDS011;6003;42.756;23.130;2022-08-04T04:23:31;6.93;;;6.33;;
11887;SDS011;6003;42.756;23.130;2022-08-04T04:26:25;6.17;;;5.67;;
11887;SDS011;6003;42.756;23.130;2022-08-04T04:29:18;7.10;;;6.00;;
11887;SDS011;6003;42.756;23.130;2022-08-04T04:32:12;7.80;;;6.23;;
11887;SDS011;6003;42.756;23.130;2022-08-04T04:34:49;6.90;;;6.30;;
11887;SDS011;6003;42.756;23.130;2022-08-04T04:37:38;5.90;;;5.30;;
11887;SDS011;6003;42.756;23.130;2022-08-04T04:40:20;5.70;;;5.20;;
11887;SDS011;6003;42.756;23.130;2022-08-04T04:43:03;5.10;;;4.80;;
11887;SDS011;6003;42.756;23.130;2022-08-04T04:45:40;5.90;;;5.40;;
11887;SDS011;6003;42.756;23.130;2022-08-04T04:48:25;6.77;;;5.77;;
11887;SDS011;6003;42.756;23.130;2022-08-04T04:51:05;5.37;;;4.90;;
11887;SDS011;6003;42.756;23.130;2022-08-04T04:53:43;5.50;;;5.10;;
11887;SDS011;6003;42.756;23.130;2022-08-04T04:56:18;5.47;;;4.97;;
11887;SDS011;6003;42.756;23.130;2022-08-04T04:58:53;5.10;;;4.53;;
11887;SDS011;6003;42.756;23.130;2022-08-04T05:01:27;5.97;;;5.20;;
11887;SDS011;6003;42.756;23.130;2022-08-04T05:04:20;5.30;;;4.90;;
11887;SDS011;6003;42.756;23.130;2022-08-04T05:10:02;4.97;;;4.67;;
11887;SDS011;6003;42.756;23.130;2022-08-04T05:12:41;5.57;;;5.13;;
11887;SDS011;6003;42.756;23.130;2022-08-04T05:15:18;5.37;;;5.07;;
11887;SDS011;6003;42.756;23.130;2022-08-04T05:17:49;7.20;;;5.27;;
11887;SDS011;6003;42.756;23.130;2022-08-04T05:20:20;5.63;;;5.13;;
11887;SDS011;6003;42.756;23.130;2022-08-04T05:22:51;6.60;;;5.00;;
11887;SDS011;6003;42.756;23.130;2022-08-04T05:25:23;5.83;;;5.33;;
11887;SDS011;6003;42.756;23.130;2022-08-04T05:27:55;5.03;;;4.73;;
11887;SDS011;6003;42.756;23.130;2022-08-04T05:30:25;5.47;;;5.03;;
11887;SDS011;6003;42.756;23.130;2022-08-04T05:32:54;5.83;;;5.23;;
11887;SDS011;6003;42.756;23.130;2022-08-04T05:35:35;5.20;;;4.70;;
11887;SDS011;6003;42.756;23.130;2022-08-04T05:38:06;5.13;;;4.37;;
11887;SDS011;6003;42.756;23.130;2022-08-04T05:40:37;5.07;;;4.67;;
11887;SDS011;6003;42.756;23.130;2022-08-04T05:43:05;5.33;;;4.67;;
11887;SDS011;6003;42.756;23.130;2022-08-04T05:45:32;5.37;;;4.90;;
11887;SDS011;6003;42.756;23.130;2022-08-04T05:48:00;5.67;;;4.50;;
11887;SDS011;6003;42.756;23.130;2022-08-04T05:50:28;5.40;;;4.93;;
11887;SDS011;6003;42.756;23.130;2022-08-04T05:52:57;4.93;;;4.57;;
11887;SDS011;6003;42.756;23.130;2022-08-04T05:55:26;4.77;;;4.23;;
11887;SDS011;6003;42.756;23.130;2022-08-04T05:57:54;7.43;;;4.50;;
11887;SDS011;6003;42.756;23.130;2022-08-04T06:00:23;6.37;;;4.50;;
11887;SDS011;6003;42.756;23.130;2022-08-04T06:02:52;5.30;;;4.80;;
11887;SDS011;6003;42.756;23.130;2022-08-04T06:05:19;5.10;;;4.70;;
11887;SDS011;6003;42.756;23.130;2022-08-04T06:07:48;5.47;;;4.83;;
11887;SDS011;6003;42.756;23.130;2022-08-04T06:10:17;5.87;;;5.37;;
11887;SDS011;6003;42.756;23.130;2022-08-04T06:12:46;4.70;;;4.40;;
11887;SDS011;6003;42.756;23.130;2022-08-04T06:15:18;5.33;;;4.83;;
11887;SDS011;6003;42.756;23.130;2022-08-04T06:17:47;4.20;;;3.80;;
11887;SDS011;6003;42.756;23.130;2022-08-04T06:20:16;4.83;;;4.20;;
11887;SDS011;6003;42.756;23.130;2022-08-04T06:22:45;4.07;;;3.77;;
11887;SDS011;6003;42.756;23.130;2022-08-04T06:25:17;4.47;;;4.07;;
11887;SDS011;6003;42.756;23.130;2022-08-04T06:27:48;4.53;;;4.23;;
11887;SDS011;6003;42.756;23.130;2022-08-04T06:30:16;4.83;;;4.33;;
11887;SDS011;6003;42.756;23.130;2022-08-04T06:32:45;4.87;;;4.33;;
11887;SDS011;6003;42.756;23.130;2022-08-04T06:35:19;5.00;;;4.50;;
11887;SDS011;6003;42.756;23.130;2022-08-04T06:37:47;4.20;;;4.00;;
11887;SDS011;6003;42.756;23.130;2022-08-04T06:40:18;8.07;;;5.00;;
11887;SDS011;6003;42.756;23.130;2022-08-04T06:42:49;5.10;;;4.80;;
11887;SDS011;6003;42.756;23.130;2022-08-04T06:45:18;4.73;;;4.40;;
11887;SDS011;6003;42.756;23.130;2022-08-04T06:47:46;5.30;;;4.90;;
11887;SDS011;6003;42.756;23.130;2022-08-04T06:50:14;5.30;;;4.90;;
11887;SDS011;6003;42.756;23.130;2022-08-04T06:52:43;5.57;;;5.03;;
11887;SDS011;6003;42.756;23.130;2022-08-04T06:55:11;6.13;;;5.30;;
11887;SDS011;6003;42.756;23.130;2022-08-04T06:57:40;6.87;;;5.13;;
11887;SDS011;6003;42.756;23.130;2022-08-04T07:00:09;6.80;;;6.20;;
11887;SDS011;6003;42.756;23.130;2022-08-04T07:02:39;6.10;;;5.50;;
11887;SDS011;6003;42.756;23.130;2022-08-04T07:05:08;5.90;;;5.50;;
11887;SDS011;6003;42.756;23.130;2022-08-04T07:07:36;6.43;;;5.93;;
11887;SDS011;6003;42.756;23.130;2022-08-04T07:10:04;7.43;;;5.53;;
11887;SDS011;6003;42.756;23.130;2022-08-04T07:12:33;6.03;;;5.53;;
11887;SDS011;6003;42.756;23.130;2022-08-04T07:15:01;6.03;;;5.20;;
11887;SDS011;6003;42.756;23.130;2022-08-04T07:17:29;4.80;;;4.50;;
11887;SDS011;6003;42.756;23.130;2022-08-04T07:19:57;4.63;;;4.33;;
11887;SDS011;6003;42.756;23.130;2022-08-04T07:22:24;4.70;;;4.40;;
11887;SDS011;6003;42.756;23.130;2022-08-04T07:24:53;4.50;;;4.20;;
11887;SDS011;6003;42.756;23.130;2022-08-04T07:27:21;5.10;;;4.60;;
11887;SDS011;6003;42.756;23.130;2022-08-04T07:32:56;4.47;;;4.07;;
11887;SDS011;6003;42.756;23.130;2022-08-04T07:35:23;4.03;;;3.73;;
11887;SDS011;6003;42.756;23.130;2022-08-04T07:37:53;10.68;;;4.70;;
11887;SDS011;6003;42.756;23.130;2022-08-04T07:40:20;5.20;;;4.70;;
11887;SDS011;6003;42.756;23.130;2022-08-04T07:42:47;5.00;;;4.60;;
11887;SDS011;6003;42.756;23.130;2022-08-04T07:45:16;5.60;;;5.10;;
11887;SDS011;6003;42.756;23.130;2022-08-04T07:47:44;4.78;;;4.20;;
11887;SDS011;6003;42.756;23.130;2022-08-04T07:50:12;4.72;;;4.22;;
11887;SDS011;6003;42.756;23.130;2022-08-04T07:52:41;4.97;;;4.57;;
11887;SDS011;6003;42.756;23.130;2022-08-04T07:55:08;4.95;;;4.57;;
11887;SDS011;6003;42.756;23.130;2022-08-04T07:57:36;4.63;;;4.32;;
11887;SDS011;6003;42.756;23.130;2022-08-04T08:00:03;5.43;;;4.93;;
11887;SDS011;6003;42.756;23.130;2022-08-04T08:02:31;4.95;;;4.47;;
11887;SDS011;6003;42.756;23.130;2022-08-04T08:05:00;4.03;;;3.80;;
11887;SDS011;6003;42.756;23.130;2022-08-04T08:07:29;4.50;;;4.00;;
11887;SDS011;6003;42.756;23.130;2022-08-04T08:09:56;4.20;;;3.90;;
11887;SDS011;6003;42.756;23.130;2022-08-04T08:12:23;6.40;;;4.38;;
11887;SDS011;6003;42.756;23.130;2022-08-04T08:14:50;5.10;;;4.63;;
11887;SDS011;6003;42.756;23.130;2022-08-04T08:17:17;4.15;;;3.85;;
11887;SDS011;6003;42.756;23.130;2022-08-04T08:19:44;4.53;;;4.22;;
11887;SDS011;6003;42.756;23.130;2022-08-04T08:22:11;4.75;;;4.25;;
11887;SDS011;6003;42.756;23.130;2022-08-04T08:24:40;4.78;;;3.80;;
11887;SDS011;6003;42.756;23.130;2022-08-04T08:27:07;5.15;;;3.80;;
11887;SDS011;6003;42.756;23.130;2022-08-04T08:29:35;4.07;;;3.88;;
11887;SDS011;6003;42.756;23.130;2022-08-04T08:32:03;4.28;;;3.97;;
11887;SDS011;6003;42.756;23.130;2022-08-04T08:34:37;3.95;;;3.58;;
11887;SDS011;6003;42.756;23.130;2022-08-04T08:37:08;3.17;;;3.05;;
11887;SDS011;6003;42.756;23.130;2022-08-04T08:39:41;3.78;;;3.05;;
11887;SDS011;6003;42.756;23.130;2022-08-04T08:42:29;3.40;;;3.20;;
11887;SDS011;6003;42.756;23.130;2022-08-04T08:48:10;2.70;;;2.60;;
11887;SDS011;6003;42.756;23.130;2022-08-04T08:51:17;3.80;;;3.58;;
11887;SDS011;6003;42.756;23.130;2022-08-04T08:54:03;4.80;;;3.30;;
11887;SDS011;6003;42.756;23.130;2022-08-04T08:56:53;4.07;;;3.40;;
11887;SDS011;6003;42.756;23.130;2022-08-04T08:59:37;3.50;;;3.30;;
11887;SDS011;6003;42.756;23.130;2022-08-04T09:02:23;3.28;;;3.00;;
11887;SDS011;6003;42.756;23.130;2022-08-04T09:05:11;3.42;;;3.13;;
11887;SDS011;6003;42.756;23.130;2022-08-04T09:07:57;3.67;;;3.38;;
11887;SDS011;6003;42.756;23.130;2022-08-04T09:10:35;3.28;;;3.08;;
11887;SDS011;6003;42.756;23.130;2022-08-04T09:13:09;3.45;;;3.25;;
11887;SDS011;6003;42.756;23.130;2022-08-04T09:15:44;3.35;;;3.15;;
11887;SDS011;6003;42.756;23.130;2022-08-04T09:18:19;3.83;;;3.53;;
11887;SDS011;6003;42.756;23.130;2022-08-04T09:20:50;5.13;;;3.85;;
11887;SDS011;6003;42.756;23.130;2022-08-04T09:23:27;4.53;;;3.40;;
11887;SDS011;6003;42.756;23.130;2022-08-04T09:26:00;3.78;;;3.47;;
11887;SDS011;6003;42.756;23.130;2022-08-04T09:28:34;3.20;;;3.10;;
11887;SDS011;6003;42.756;23.130;2022-08-04T09:31:09;3.17;;;2.97;;
11887;SDS011;6003;42.756;23.130;2022-08-04T09:33:41;3.15;;;2.80;;
11887;SDS011;6003;42.756;23.130;2022-08-04T09:36:19;2.80;;;2.40;;
11887;SDS011;6003;42.756;23.130;2022-08-04T09:39:00;2.42;;;2.33;;
11887;SDS011;6003;42.756;23.130;2022-08-04T09:41:35;2.45;;;2.35;;
11887;SDS011;6003;42.756;23.130;2022-08-04T09:44:12;2.33;;;2.22;;
11887;SDS011;6003;42.756;23.130;2022-08-04T09:46:48;2.20;;;2.10;;
11887;SDS011;6003;42.756;23.130;2022-08-04T09:49:20;2.40;;;2.20;;
11887;SDS011;6003;42.756;23.130;2022-08-04T09:51:55;2.75;;;2.55;;
11887;SDS011;6003;42.756;23.130;2022-08-04T09:54:32;2.55;;;2.22;;
11887;SDS011;6003;42.756;23.130;2022-08-04T09:57:12;2.35;;;2.25;;
11887;SDS011;6003;42.756;23.130;2022-08-04T09:59:52;2.20;;;2.03;;
11887;SDS011;6003;42.756;23.130;2022-08-04T10:02:23;2.15;;;2.05;;
11887;SDS011;6003;42.756;23.130;2022-08-04T10:04:54;6.05;;;3.78;;
11887;SDS011;6003;42.756;23.130;2022-08-04T10:07:28;2.80;;;2.60;;
11887;SDS011;6003;42.756;23.130;2022-08-04T10:10:18;2.45;;;2.25;;
11887;SDS011;6003;42.756;23.130;2022-08-04T10:13:00;2.35;;;2.22;;
11887;SDS011;6003;42.756;23.130;2022-08-04T10:15:39;2.60;;;2.50;;
11887;SDS011;6003;42.756;23.130;2022-08-04T10:18:16;4.00;;;2.30;;
11887;SDS011;6003;42.756;23.130;2022-08-04T10:20:56;2.33;;;2.22;;
11887;SDS011;6003;42.756;23.130;2022-08-04T10:23:37;2.30;;;2.08;;
11887;SDS011;6003;42.756;23.130;2022-08-04T10:26:17;2.90;;;2.53;;
11887;SDS011;6003;42.756;23.130;2022-08-04T10:28:52;5.10;;;2.22;;
11887;SDS011;6003;42.756;23.130;2022-08-04T10:31:25;2.33;;;1.90;;
11887;SDS011;6003;42.756;23.130;2022-08-04T10:33:57;2.38;;;2.10;;
11887;SDS011;6003;42.756;23.130;2022-08-04T10:36:30;2.30;;;2.10;;
11887;SDS011;6003;42.756;23.130;2022-08-04T10:39:06;2.78;;;2.05;;
11887;SDS011;6003;42.756;23.130;2022-08-04T10:41:41;2.22;;;2.10;;
11887;SDS011;6003;42.756;23.130;2022-08-04T10:44:21;2.30;;;2.20;;
11887;SDS011;6003;42.756;23.130;2022-08-04T10:47:03;3.00;;;2.70;;
11887;SDS011;6003;42.756;23.130;2022-08-04T10:49:33;2.20;;;2.10;;
11887;SDS011;6003;42.756;23.130;2022-08-04T10:52:05;3.00;;;2.90;;
11887;SDS011;6003;42.756;23.130;2022-08-04T10:54:37;3.05;;;2.88;;
11887;SDS011;6003;42.756;23.130;2022-08-04T10:57:13;2.50;;;2.40;;
11887;SDS011;6003;42.756;23.130;2022-08-04T10:59:48;2.60;;;2.35;;
11887;SDS011;6003;42.756;23.130;2022-08-04T11:02:40;4.15;;;3.15;;
11887;SDS011;6003;42.756;23.130;2022-08-04T11:05:16;3.20;;;2.88;;
11887;SDS011;6003;42.756;23.130;2022-08-04T11:07:50;2.17;;;2.08;;
11887;SDS011;6003;42.756;23.130;2022-08-04T11:10:23;2.47;;;2.08;;
11887;SDS011;6003;42.756;23.130;2022-08-04T11:12:56;3.10;;;2.20;;
11887;SDS011;6003;42.756;23.130;2022-08-04T11:15:32;2.50;;;2.05;;
11887;SDS011;6003;42.756;23.130;2022-08-04T11:18:06;2.60;;;2.40;;
11887;SDS011;6003;42.756;23.130;2022-08-04T11:32:57;2.65;;;2.47;;
11887;SDS011;6003;42.756;23.130;2022-08-04T11:35:31;2.58;;;2.38;;
11887;SDS011;6003;42.756;23.130;2022-08-04T11:38:05;3.47;;;2.42;;
11887;SDS011;6003;42.756;23.130;2022-08-04T11:40:42;2.50;;;2.40;;
11887;SDS011;6003;42.756;23.130;2022-08-04T11:43:11;2.90;;;2.45;;
11887;SDS011;6003;42.756;23.130;2022-08-04T11:45:46;2.60;;;2.50;;
11887;SDS011;6003;42.756;23.130;2022-08-04T11:48:21;2.35;;;2.25;;
11887;SDS011;6003;42.756;23.130;2022-08-04T11:50:56;2.40;;;2.30;;
11887;SDS011;6003;42.756;23.130;2022-08-04T11:53:29;2.58;;;2.38;;
11887;SDS011;6003;42.756;23.130;2022-08-04T11:55:59;3.70;;;2.50;;
11887;SDS011;6003;42.756;23.130;2022-08-04T11:58:28;2.50;;;2.30;;
11887;SDS011;6003;42.756;23.130;2022-08-04T12:00:57;3.72;;;3.08;;
11887;SDS011;6003;42.756;23.130;2022-08-04T12:03:48;7.00;;;3.00;;
11887;SDS011;6003;42.756;23.130;2022-08-04T12:06:29;5.68;;;2.70;;
11887;SDS011;6003;42.756;23.130;2022-08-04T12:09:04;2.70;;;2.50;;
11887;SDS011;6003;42.756;23.130;2022-08-04T12:11:39;7.40;;;2.80;;
11887;SDS011;6003;42.756;23.130;2022-08-04T12:14:20;3.53;;;2.60;;
11887;SDS011;6003;42.756;23.130;2022-08-04T12:16:55;3.60;;;2.97;;
11887;SDS011;6003;42.756;23.130;2022-08-04T12:19:30;3.53;;;2.40;;
11887;SDS011;6003;42.756;23.130;2022-08-04T12:22:03;2.22;;;2.13;;
11887;SDS011;6003;42.756;23.130;2022-08-04T12:24:36;4.22;;;2.40;;
11887;SDS011;6003;42.756;23.130;2022-08-04T12:27:10;2.30;;;2.10;;
11887;SDS011;6003;42.756;23.130;2022-08-04T12:29:41;3.22;;;2.92;;
11887;SDS011;6003;42.756;23.130;2022-08-04T12:32:16;2.75;;;2.55;;
11887;SDS011;6003;42.756;23.130;2022-08-04T12:34:48;3.55;;;3.25;;
11887;SDS011;6003;42.756;23.130;2022-08-04T12:37:26;2.92;;;2.63;;
11887;SDS011;6003;42.756;23.130;2022-08-04T12:40:00;2.58;;;2.40;;
11887;SDS011;6003;42.756;23.130;2022-08-04T12:42:33;5.47;;;2.50;;
11887;SDS011;6003;42.756;23.130;2022-08-04T12:45:13;6.57;;;3.10;;
11887;SDS011;6003;42.756;23.130;2022-08-04T12:47:42;3.00;;;2.75;;
11887;SDS011;6003;42.756;23.130;2022-08-04T12:50:13;4.60;;;3.10;;
11887;SDS011;6003;42.756;23.130;2022-08-04T12:52:43;6.07;;;3.00;;
11887;SDS011;6003;42.756;23.130;2022-08-04T12:55:14;3.03;;;2.83;;
11887;SDS011;6003;42.756;23.130;2022-08-04T12:57:45;7.05;;;2.80;;
11887;SDS011;6003;42.756;23.130;2022-08-04T13:00:21;9.00;;;3.97;;
11887;SDS011;6003;42.756;23.130;2022-08-04T13:02:49;4.15;;;3.88;;
11887;SDS011;6003;42.756;23.130;2022-08-04T13:05:20;3.60;;;2.95;;
11887;SDS011;6003;42.756;23.130;2022-08-04T13:07:49;3.45;;;2.92;;
11887;SDS011;6003;42.756;23.130;2022-08-04T13:10:17;3.20;;;2.90;;
11887;SDS011;6003;42.756;23.130;2022-08-04T13:12:50;3.60;;;3.40;;
11887;SDS011;6003;42.756;23.130;2022-08-04T13:15:21;3.13;;;2.67;;
11887;SDS011;6003;42.756;23.130;2022-08-04T13:17:50;5.57;;;2.97;;
11887;SDS011;6003;42.756;23.130;2022-08-04T13:20:26;3.38;;;3.13;;
11887;SDS011;6003;42.756;23.130;2022-08-04T13:23:04;4.50;;;2.75;;
11887;SDS011;6003;42.756;23.130;2022-08-04T13:25:33;4.05;;;3.03;;
11887;SDS011;6003;42.756;23.130;2022-08-04T13:28:04;3.92;;;3.20;;
11887;SDS011;6003;42.756;23.130;2022-08-04T13:30:34;6.78;;;3.47;;
11887;SDS011;6003;42.756;23.130;2022-08-04T13:33:02;3.10;;;2.85;;
11887;SDS011;6003;42.756;23.130;2022-08-04T13:35:32;4.40;;;3.28;;
11887;SDS011;6003;42.756;23.130;2022-08-04T13:38:02;3.35;;;3.05;;
11887;SDS011;6003;42.756;23.130;2022-08-04T13:40:33;7.60;;;3.80;;
11887;SDS011;6003;42.756;23.130;2022-08-04T13:43:01;4.07;;;3.22;;
11887;SDS011;6003;42.756;23.130;2022-08-04T13:45:28;5.45;;;3.92;;
11887;SDS011;6003;42.756;23.130;2022-08-04T13:47:56;2.85;;;2.65;;
11887;SDS011;6003;42.756;23.130;2022-08-04T13:50:26;4.82;;;2.92;;
11887;SDS011;6003;42.756;23.130;2022-08-04T13:52:57;3.45;;;2.97;;
11887;SDS011;6003;42.756;23.130;2022-08-04T13:55:27;5.35;;;3.47;;
11887;SDS011;6003;42.756;23.130;2022-08-04T13:57:57;5.47;;;3.72;;
11887;SDS011;6003;42.756;23.130;2022-08-04T14:00:36;4.85;;;3.15;;
11887;SDS011;6003;42.756;23.130;2022-08-04T14:03:06;6.40;;;3.22;;
11887;SDS011;6003;42.756;23.130;2022-08-04T14:05:34;7.05;;;3.67;;
11887;SDS011;6003;42.756;23.130;2022-08-04T14:08:07;6.32;;;3.90;;
11887;SDS011;6003;42.756;23.130;2022-08-04T14:10:40;4.22;;;3.20;;
11887;SDS011;6003;42.756;23.130;2022-08-04T14:13:07;5.28;;;3.17;;
11887;SDS011;6003;42.756;23.130;2022-08-04T14:15:35;4.55;;;3.55;;
11887;SDS011;6003;42.756;23.130;2022-08-04T14:18:17;3.00;;;2.80;;
11887;SDS011;6003;42.756;23.130;2022-08-04T14:21:03;8.60;;;3.22;;
11887;SDS011;6003;42.756;23.130;2022-08-04T14:23:43;3.45;;;3.00;;
11887;SDS011;6003;42.756;23.130;2022-08-04T16:39:03;4.13;;;3.15;;
11887;SDS011;6003;42.756;23.130;2022-08-04T16:41:39;4.50;;;3.38;;
11887;SDS011;6003;42.756;23.130;2022-08-04T16:47:01;3.30;;;3.00;;
11887;SDS011;6003;42.756;23.130;2022-08-04T16:49:29;6.75;;;3.55;;
11887;SDS011;6003;42.756;23.130;2022-08-04T16:51:59;3.15;;;2.80;;
11887;SDS011;6003;42.756;23.130;2022-08-04T16:54:29;3.67;;;3.20;;
11887;SDS011;6003;42.756;23.130;2022-08-04T16:56:57;4.50;;;2.83;;
11887;SDS011;6003;42.756;23.130;2022-08-04T16:59:24;5.97;;;3.65;;
11887;SDS011;6003;42.756;23.130;2022-08-04T17:01:52;3.25;;;2.95;;
11887;SDS011;6003;42.756;23.130;2022-08-04T17:04:26;9.10;;;3.40;;
11887;SDS011;6003;42.756;23.130;2022-08-04T17:06:57;5.57;;;3.53;;
11887;SDS011;6003;42.756;23.130;2022-08-04T17:09:26;4.03;;;3.07;;
11887;SDS011;6003;42.756;23.130;2022-08-04T17:11:55;4.73;;;3.20;;
11887;SDS011;6003;42.756;23.130;2022-08-04T17:14:23;3.10;;;2.80;;
11887;SDS011;6003;42.756;23.130;2022-08-04T17:16:52;9.80;;;3.50;;
11887;SDS011;6003;42.756;23.130;2022-08-04T17:19:21;3.40;;;3.03;;
11887;SDS011;6003;42.756;23.130;2022-08-04T17:21:48;4.47;;;3.23;;
11887;SDS011;6003;42.756;23.130;2022-08-04T17:24:15;5.87;;;3.70;;
11887;SDS011;6003;42.756;23.130;2022-08-04T17:26:42;4.43;;;3.20;;
11887;SDS011;6003;42.756;23.130;2022-08-04T17:29:12;4.03;;;3.37;;
11887;SDS011;6003;42.756;23.130;2022-08-04T17:31:39;7.43;;;3.80;;
11887;SDS011;6003;42.756;23.130;2022-08-04T17:34:09;5.67;;;3.17;;
11887;SDS011;6003;42.756;23.130;2022-08-04T17:36:38;4.77;;;3.17;;
11887;SDS011;6003;42.756;23.130;2022-08-04T17:39:10;7.43;;;3.33;;
11887;SDS011;6003;42.756;23.130;2022-08-04T17:41:38;6.10;;;3.30;;
11887;SDS011;6003;42.756;23.130;2022-08-04T17:44:05;5.37;;;2.97;;
11887;SDS011;6003;42.756;23.130;2022-08-04T17:46:36;7.43;;;3.70;;
11887;SDS011;6003;42.756;23.130;2022-08-04T17:49:06;3.63;;;3.30;;
11887;SDS011;6003;42.756;23.130;2022-08-04T17:51:35;5.67;;;3.70;;
11887;SDS011;6003;42.756;23.130;2022-08-04T17:54:05;3.37;;;2.90;;
11887;SDS011;6003;42.756;23.130;2022-08-04T17:56:34;5.80;;;3.40;;
11887;SDS011;6003;42.756;23.130;2022-08-04T17:59:05;10.70;;;3.87;;
11887;SDS011;6003;42.756;23.130;2022-08-04T18:01:45;4.77;;;3.37;;
11887;SDS011;6003;42.756;23.130;2022-08-04T18:04:27;6.60;;;3.50;;
11887;SDS011;6003;42.756;23.130;2022-08-04T18:06:58;4.43;;;2.97;;
11887;SDS011;6003;42.756;23.130;2022-08-04T18:09:30;8.30;;;3.60;;
11887;SDS011;6003;42.756;23.130;2022-08-04T18:11:59;5.40;;;3.80;;
11887;SDS011;6003;42.756;23.130;2022-08-04T18:14:27;10.90;;;5.87;;
11887;SDS011;6003;42.756;23.130;2022-08-04T18:17:04;13.13;;;5.33;;
11887;SDS011;6003;42.756;23.130;2022-08-04T18:19:32;8.90;;;5.10;;
11887;SDS011;6003;42.756;23.130;2022-08-04T18:22:00;6.97;;;4.30;;
11887;SDS011;6003;42.756;23.130;2022-08-04T18:24:28;6.17;;;3.50;;
11887;SDS011;6003;42.756;23.130;2022-08-04T18:26:56;3.70;;;3.17;;
11887;SDS011;6003;42.756;23.130;2022-08-04T18:29:22;6.90;;;3.47;;
11887;SDS011;6003;42.756;23.130;2022-08-04T18:31:49;7.00;;;3.30;;
11887;SDS011;6003;42.756;23.130;2022-08-04T18:34:18;5.17;;;3.47;;